Time;durP1;ratioP1;P1;durP2;ratioP2;P2;SDS_P1;SDS_P2;PMS_P1;PMS_P2;Temp;Humidity;BMP_temperature;BMP_pressure;BME280_temperature;BME280_humidity;BME280_pressure;Samples;Min_cycle;Max_cycle;Signal;HPM_P1;HPM_P2
2021/07/21 00:01:34;;;;;;;6.40;4.53;;;18.90;99.90;;;;;;5077748;28;20172;-80
2021/07/21 00:03:59;;;;;;;6.20;4.03;;;18.90;99.90;;;;;;5059979;28;20636;-81
2021/07/21 00:06:25;;;;;;;6.60;5.03;;;18.80;99.90;;;;;;5077614;28;20410;-81
2021/07/21 00:08:50;;;;;;;5.60;4.53;;;18.80;99.90;;;;;;5078220;28;20667;-81
2021/07/21 00:14:06;;;;;;;5.57;4.70;;;18.90;99.90;;;;;;5080245;28;20198;-80
2021/07/21 00:16:35;;;;;;;8.80;5.20;;;18.70;99.90;;;;;;5081567;28;20414;-81
2021/07/21 00:21:50;;;;;;;7.43;4.63;;;18.70;99.90;;;;;;5037804;28;20440;-80
2021/07/21 00:24:15;;;;;;;7.47;4.60;;;18.60;99.90;;;;;;5080601;28;20410;-79
2021/07/21 00:26:41;;;;;;;7.30;4.90;;;18.60;99.90;;;;;;5080260;28;20164;-81
2021/07/21 00:29:06;;;;;;;6.27;5.07;;;18.60;99.90;;;;;;5081943;28;20223;-81
2021/07/21 00:31:32;;;;;;;7.30;5.10;;;18.60;99.90;;;;;;5079254;28;20229;-80
2021/07/21 00:33:57;;;;;;;5.33;4.20;;;18.50;99.90;;;;;;5079643;28;20195;-79
2021/07/21 00:36:23;;;;;;;5.23;4.73;;;18.60;99.90;;;;;;5079133;28;20187;-79
2021/07/21 00:38:49;;;;;;;6.20;4.80;;;18.60;99.90;;;;;;5062145;28;20180;-80
2021/07/21 00:41:15;;;;;;;11.20;5.17;;;18.50;99.90;;;;;;5079483;28;20863;-80
2021/07/21 00:43:41;;;;;;;7.43;5.30;;;18.60;99.90;;;;;;5061881;28;20192;-79
2021/07/21 00:46:06;;;;;;;6.33;4.60;;;18.60;99.90;;;;;;5078704;28;20789;-79
2021/07/21 00:48:32;;;;;;;7.67;4.73;;;18.60;99.90;;;;;;5078649;28;20597;-80
2021/07/21 00:50:59;;;;;;;6.07;4.80;;;18.60;99.90;;;;;;5079039;28;20294;-79
2021/07/21 00:53:26;;;;;;;6.93;5.23;;;18.60;99.90;;;;;;5079100;28;20452;-79
2021/07/21 00:55:54;;;;;;;6.60;5.20;;;18.60;99.90;;;;;;5060893;28;20420;-80
2021/07/21 00:58:20;;;;;;;7.90;5.30;;;18.50;99.90;;;;;;5060823;28;20421;-79
2021/07/21 01:00:45;;;;;;;9.43;5.47;;;18.50;99.90;;;;;;5061702;28;20422;-80
2021/07/21 01:03:11;;;;;;;7.00;5.03;;;18.30;99.90;;;;;;5078615;28;20434;-80
2021/07/21 01:05:42;;;;;;;7.77;5.83;;;18.30;99.90;;;;;;5078286;28;20301;-81
2021/07/21 01:08:12;;;;;;;6.10;4.77;;;18.40;99.90;;;;;;5079112;28;20252;-81
2021/07/21 01:10:44;;;;;;;9.43;5.50;;;18.40;99.90;;;;;;5078272;28;20399;-80
2021/07/21 01:13:24;;;;;;;7.40;4.93;;;18.40;99.90;;;;;;5078757;28;20433;-80
2021/07/21 01:16:12;;;;;;;7.77;4.53;;;18.30;99.90;;;;;;5079141;28;20410;-80
2021/07/21 01:18:50;;;;;;;13.10;5.37;;;18.30;99.90;;;;;;5078127;28;20458;-80
2021/07/21 01:21:38;;;;;;;5.47;4.27;;;18.40;99.90;;;;;;5079223;28;20412;-79
2021/07/21 01:24:29;;;;;;;7.60;4.87;;;18.40;99.90;;;;;;5063967;28;20948;-80
2021/07/21 01:27:31;;;;;;;7.40;5.07;;;18.40;99.90;;;;;;5078932;28;20409;-79
2021/07/21 01:30:02;;;;;;;6.87;5.50;;;18.50;99.90;;;;;;5060351;28;20547;-79
2021/07/21 01:32:31;;;;;;;7.67;5.50;;;18.30;99.90;;;;;;5078019;28;20541;-79
2021/07/21 01:35:13;;;;;;;6.50;5.20;;;18.30;99.90;;;;;;5076971;28;20916;-78
2021/07/21 01:37:42;;;;;;;6.47;5.13;;;18.30;99.90;;;;;;5077664;28;20410;-80
2021/07/21 01:40:15;;;;;;;13.93;5.77;;;18.30;99.90;;;;;;5058572;28;20914;-79
2021/07/21 01:42:43;;;;;;;7.93;5.67;;;18.40;99.90;;;;;;5080864;28;20410;-80
2021/07/21 01:45:12;;;;;;;10.07;5.60;;;18.40;99.90;;;;;;5076948;28;20445;-80
2021/07/21 01:47:42;;;;;;;6.70;5.57;;;18.30;99.90;;;;;;5077539;28;20435;-80
2021/07/21 01:50:08;;;;;;;8.13;5.87;;;18.30;99.90;;;;;;5077471;28;20461;-80
2021/07/21 01:52:34;;;;;;;7.97;5.67;;;18.30;99.90;;;;;;5077207;28;20836;-81
2021/07/21 01:55:04;;;;;;;7.40;5.67;;;18.30;99.90;;;;;;5077469;28;20405;-78
2021/07/21 01:57:31;;;;;;;9.87;6.97;;;18.30;99.90;;;;;;5059859;28;20420;-81
2021/07/21 01:59:59;;;;;;;11.30;4.90;;;18.30;99.90;;;;;;5059869;28;20415;-79
2021/07/21 02:02:26;;;;;;;8.27;5.00;;;18.30;99.90;;;;;;5077388;28;20469;-81
2021/07/21 02:04:52;;;;;;;6.87;5.27;;;18.30;99.90;;;;;;5077851;28;20429;-80
2021/07/21 02:07:20;;;;;;;8.83;5.07;;;18.30;99.90;;;;;;5077873;28;20414;-81
2021/07/21 02:09:46;;;;;;;7.93;5.40;;;18.30;99.90;;;;;;5077353;28;20881;-80
2021/07/21 02:12:14;;;;;;;8.10;5.13;;;18.20;99.90;;;;;;5077901;28;20518;-80
2021/07/21 02:14:42;;;;;;;8.00;5.27;;;18.20;99.90;;;;;;5078737;28;20417;-80
2021/07/21 02:17:08;;;;;;;10.67;5.57;;;18.30;99.90;;;;;;5079206;28;20413;-79
2021/07/21 02:19:35;;;;;;;10.87;6.97;;;18.20;99.90;;;;;;5060354;28;20433;-80
2021/07/21 02:22:01;;;;;;;6.10;4.90;;;18.30;99.90;;;;;;5076132;28;20838;-80
2021/07/21 02:24:28;;;;;;;7.50;5.47;;;18.30;99.90;;;;;;5076675;28;20504;-79
2021/07/21 02:26:54;;;;;;;7.07;4.63;;;18.30;99.90;;;;;;5075783;28;20443;-79
2021/07/21 02:29:22;;;;;;;8.47;6.00;;;18.20;99.90;;;;;;5079677;28;20460;-80
2021/07/21 02:31:58;;;;;;;9.70;5.87;;;18.20;99.90;;;;;;5084018;28;20416;-80
2021/07/21 02:34:24;;;;;;;10.53;5.30;;;18.20;99.90;;;;;;5075387;28;20420;-79
2021/07/21 02:36:50;;;;;;;9.80;6.17;;;18.30;99.90;;;;;;5074582;28;20422;-79
2021/07/21 02:39:16;;;;;;;6.87;5.30;;;18.30;99.90;;;;;;5077914;28;20216;-79
2021/07/21 02:41:43;;;;;;;8.20;5.40;;;18.30;99.90;;;;;;5081201;28;20428;-80
2021/07/21 02:44:09;;;;;;;9.90;5.40;;;18.30;99.90;;;;;;5078489;28;20178;-79
2021/07/21 02:46:35;;;;;;;8.27;4.80;;;18.30;99.90;;;;;;5078538;28;20444;-79
2021/07/21 02:49:01;;;;;;;6.70;5.37;;;18.30;99.90;;;;;;5077733;28;20453;-80
2021/07/21 02:51:35;;;;;;;10.47;6.33;;;18.20;99.90;;;;;;5074720;28;20176;-78
2021/07/21 02:54:09;;;;;;;12.50;5.70;;;18.10;99.90;;;;;;5074493;28;20265;-79
2021/07/21 02:56:43;;;;;;;9.00;5.70;;;18.20;99.90;;;;;;5077170;28;20457;-80
2021/07/21 02:59:14;;;;;;;7.53;5.23;;;18.30;99.90;;;;;;5075136;28;20448;-80
2021/07/21 03:01:45;;;;;;;7.70;5.53;;;18.20;99.90;;;;;;5058498;28;20443;-80
2021/07/21 03:04:12;;;;;;;7.63;5.27;;;18.10;99.90;;;;;;5076102;28;20416;-79
2021/07/21 03:06:39;;;;;;;16.03;7.13;;;18.20;99.90;;;;;;5077768;28;20423;-80
2021/07/21 03:09:05;;;;;;;10.63;6.07;;;18.00;99.90;;;;;;5078300;28;20448;-80
2021/07/21 03:11:33;;;;;;;9.60;5.70;;;18.00;99.90;;;;;;5058173;28;20504;-80
2021/07/21 03:14:01;;;;;;;7.13;5.50;;;18.00;99.90;;;;;;5078333;28;20459;-80
2021/07/21 03:16:33;;;;;;;8.00;4.93;;;18.10;99.90;;;;;;5076837;28;20412;-80
2021/07/21 03:19:05;;;;;;;13.70;6.30;;;18.10;99.90;;;;;;5076797;28;20427;-80
2021/07/21 03:21:33;;;;;;;8.30;5.43;;;18.20;99.90;;;;;;5075614;28;20425;-80
2021/07/21 03:24:01;;;;;;;11.70;5.70;;;18.20;99.90;;;;;;5077308;28;20502;-81
2021/07/21 03:26:31;;;;;;;6.80;4.83;;;18.30;99.90;;;;;;5077586;28;20980;-80
2021/07/21 03:28:57;;;;;;;10.70;5.80;;;18.30;99.90;;;;;;5059694;28;20503;-79
2021/07/21 03:31:23;;;;;;;6.63;4.87;;;18.40;99.90;;;;;;5076922;28;20408;-81
2021/07/21 03:34:01;;;;;;;9.77;6.10;;;18.40;99.90;;;;;;5075819;28;20527;-80
2021/07/21 03:36:30;;;;;;;12.90;6.37;;;18.40;99.90;;;;;;5076830;28;20764;-80
2021/07/21 03:38:57;;;;;;;10.07;6.97;;;18.40;99.90;;;;;;5075186;28;20421;-80
2021/07/21 03:41:24;;;;;;;34.47;7.40;;;18.40;99.90;;;;;;5076427;28;20776;-81
2021/07/21 03:43:51;;;;;;;10.60;6.23;;;18.40;99.90;;;;;;5058304;28;20442;-80
2021/07/21 03:46:18;;;;;;;8.13;5.90;;;18.30;99.90;;;;;;5075829;28;20410;-80
2021/07/21 03:48:45;;;;;;;15.00;6.03;;;18.30;99.90;;;;;;5075132;28;20469;-81
2021/07/21 03:51:12;;;;;;;10.07;6.00;;;18.30;99.90;;;;;;5059247;28;20507;-80
2021/07/21 03:53:38;;;;;;;11.10;6.23;;;18.20;99.90;;;;;;5080433;28;20428;-79
2021/07/21 03:56:04;;;;;;;9.23;5.77;;;18.30;99.90;;;;;;5079092;28;20769;-80
2021/07/21 03:58:30;;;;;;;9.10;6.17;;;18.40;99.90;;;;;;5081548;28;20512;-79
2021/07/21 04:00:57;;;;;;;9.40;6.17;;;18.40;99.90;;;;;;5060795;28;20449;-80
2021/07/21 04:03:24;;;;;;;14.40;7.93;;;18.30;99.90;;;;;;5080760;28;20199;-80
2021/07/21 04:05:57;;;;;;;13.10;5.80;;;18.40;99.90;;;;;;5081384;28;20746;-81
2021/07/21 04:08:27;;;;;;;8.10;5.73;;;18.40;99.90;;;;;;5064290;28;20461;-81
2021/07/21 04:10:53;;;;;;;8.93;5.70;;;18.40;99.90;;;;;;5081969;28;20501;-80
2021/07/21 04:13:20;;;;;;;9.37;6.00;;;18.50;99.90;;;;;;5080028;28;20431;-80
2021/07/21 04:15:50;;;;;;;9.40;5.87;;;18.40;99.90;;;;;;5063541;28;20416;-81
2021/07/21 04:18:19;;;;;;;9.73;5.70;;;18.40;99.90;;;;;;5080619;28;20920;-80
2021/07/21 04:20:46;;;;;;;8.90;5.37;;;18.40;99.90;;;;;;5081343;28;20416;-81
2021/07/21 04:23:11;;;;;;;7.57;5.20;;;18.40;99.90;;;;;;5079913;28;20829;-81
2021/07/21 04:25:38;;;;;;;8.87;6.33;;;18.40;99.90;;;;;;5081085;28;20440;-80
2021/07/21 04:28:04;;;;;;;10.00;7.07;;;18.30;99.90;;;;;;5081498;28;20548;-81
2021/07/21 04:30:32;;;;;;;11.23;6.70;;;18.30;99.90;;;;;;5077464;28;20452;-79
2021/07/21 04:32:59;;;;;;;11.13;6.20;;;18.30;99.90;;;;;;5080624;28;20421;-79
2021/07/21 04:35:27;;;;;;;8.93;5.90;;;18.40;99.90;;;;;;5077878;28;20405;-79
2021/07/21 04:37:53;;;;;;;9.17;6.00;;;18.40;99.90;;;;;;5077210;28;20486;-80
2021/07/21 04:40:19;;;;;;;8.73;5.33;;;18.50;99.90;;;;;;5078257;28;20410;-79
2021/07/21 04:42:44;;;;;;;7.40;4.57;;;18.50;99.90;;;;;;5077004;28;20472;-79
2021/07/21 04:45:11;;;;;;;11.43;6.30;;;18.50;99.90;;;;;;5060618;28;20187;-81
2021/07/21 04:47:40;;;;;;;9.77;6.37;;;18.60;99.90;;;;;;5078981;28;20445;-80
2021/07/21 04:50:10;;;;;;;8.30;5.77;;;18.60;99.90;;;;;;5064417;28;20462;-81
2021/07/21 04:52:37;;;;;;;9.80;5.40;;;18.60;99.90;;;;;;5038808;28;20431;-80
2021/07/21 04:55:05;;;;;;;15.80;6.13;;;18.60;99.90;;;;;;5057177;28;20540;-80
2021/07/21 04:57:30;;;;;;;8.63;5.20;;;18.60;99.90;;;;;;5058175;28;20940;-81
2021/07/21 04:59:56;;;;;;;10.87;6.10;;;18.60;99.90;;;;;;5077114;28;20425;-79
2021/07/21 05:02:22;;;;;;;7.43;5.00;;;18.60;99.90;;;;;;5076540;28;20227;-80
2021/07/21 05:04:48;;;;;;;8.00;5.17;;;18.70;99.90;;;;;;5068881;28;20172;-80
2021/07/21 05:07:16;;;;;;;8.10;5.40;;;18.70;99.90;;;;;;5040245;28;20442;-80
2021/07/21 05:09:42;;;;;;;11.93;5.37;;;18.80;99.90;;;;;;5057732;28;20454;-80
2021/07/21 05:12:08;;;;;;;8.87;5.27;;;18.80;99.90;;;;;;5056396;28;20420;-79
2021/07/21 05:14:34;;;;;;;10.53;5.77;;;18.90;99.90;;;;;;5056856;28;20903;-80
2021/07/21 05:16:59;;;;;;;8.70;5.30;;;19.00;99.90;;;;;;5056835;28;20473;-80
2021/07/21 05:19:25;;;;;;;10.37;5.33;;;19.00;99.90;;;;;;5056661;28;20176;-80
2021/07/21 05:21:52;;;;;;;7.37;4.90;;;19.00;99.90;;;;;;5055687;28;20628;-79
2021/07/21 05:24:19;;;;;;;9.73;4.90;;;18.90;99.90;;;;;;5055897;28;20639;-80
2021/07/21 05:26:47;;;;;;;7.60;4.73;;;18.90;99.90;;;;;;5037377;28;20450;-80
2021/07/21 05:29:18;;;;;;;9.00;6.10;;;18.90;99.90;;;;;;5061207;28;20501;-79
2021/07/21 05:31:44;;;;;;;11.77;7.30;;;18.90;99.90;;;;;;5068583;28;20426;-80
2021/07/21 05:34:10;;;;;;;7.97;5.50;;;18.80;99.90;;;;;;5071417;28;20445;-82
2021/07/21 05:36:55;;;;;;;9.33;5.43;;;18.90;99.90;;;;;;5058834;28;20221;-81
2021/07/21 05:39:26;;;;;;;11.30;5.60;;;18.90;99.90;;;;;;5060681;28;20187;-81
2021/07/21 05:41:56;;;;;;;9.93;6.07;;;19.10;99.90;;;;;;5049333;28;21100;-80
2021/07/21 05:44:22;;;;;;;11.33;5.70;;;19.10;99.90;;;;;;5071523;28;20425;-81
2021/07/21 05:46:47;;;;;;;10.77;6.40;;;19.10;99.90;;;;;;5086770;28;20458;-81
2021/07/21 05:49:13;;;;;;;9.30;5.10;;;19.20;99.90;;;;;;5060117;28;20453;-80
2021/07/21 05:51:39;;;;;;;11.10;6.03;;;19.20;99.90;;;;;;5075688;28;20542;-80
2021/07/21 05:54:05;;;;;;;9.27;4.67;;;19.40;99.90;;;;;;5076207;28;20172;-80
2021/07/21 05:56:31;;;;;;;15.03;5.80;;;19.40;99.90;;;;;;5075529;28;20180;-79
2021/07/21 05:58:56;;;;;;;10.43;5.27;;;19.50;99.90;;;;;;5075613;28;20508;-80
2021/07/21 06:01:22;;;;;;;8.70;5.40;;;19.40;99.90;;;;;;5074740;28;20192;-79
2021/07/21 06:03:47;;;;;;;12.30;5.97;;;19.40;99.90;;;;;;5076908;28;20210;-80
2021/07/21 06:06:13;;;;;;;7.23;4.50;;;19.50;99.90;;;;;;5075783;28;20200;-80
2021/07/21 06:08:38;;;;;;;10.87;5.77;;;19.60;99.90;;;;;;5075116;28;20195;-79
2021/07/21 06:11:04;;;;;;;9.20;5.00;;;19.70;99.90;;;;;;5074731;28;20189;-79
2021/07/21 06:13:30;;;;;;;8.50;5.63;;;19.80;99.90;;;;;;5076880;28;20209;-80
2021/07/21 06:15:56;;;;;;;8.60;6.33;;;19.70;99.90;;;;;;5074664;28;20180;-79
2021/07/21 06:18:22;;;;;;;7.73;5.20;;;19.70;99.90;;;;;;5075274;28;20424;-78
2021/07/21 06:20:48;;;;;;;9.10;5.30;;;19.80;99.90;;;;;;5075351;28;20413;-80
2021/07/21 06:23:13;;;;;;;9.37;6.03;;;19.70;99.90;;;;;;5075721;28;20197;-80
2021/07/21 06:25:39;;;;;;;11.03;6.07;;;19.80;99.90;;;;;;5076683;28;20228;-79
2021/07/21 06:28:04;;;;;;;9.33;5.83;;;19.90;99.90;;;;;;5076353;28;20190;-78
2021/07/21 06:30:34;;;;;;;14.33;6.10;;;20.10;99.90;;;;;;5057346;28;20213;-78
2021/07/21 06:33:00;;;;;;;7.30;5.18;;;20.20;99.90;;;;;;5070540;28;20832;-78
2021/07/21 06:35:25;;;;;;;6.97;5.23;;;20.20;99.90;;;;;;5072705;28;20195;-79
2021/07/21 06:37:51;;;;;;;12.57;5.20;;;20.20;99.90;;;;;;5074624;28;20265;-78
2021/07/21 06:40:17;;;;;;;6.80;4.67;;;20.20;99.90;;;;;;5055514;28;20194;-78
2021/07/21 06:42:43;;;;;;;11.87;5.13;;;20.30;99.90;;;;;;5061876;28;20706;-79
2021/07/21 06:45:09;;;;;;;13.27;7.93;;;20.30;99.90;;;;;;5073922;28;20481;-79
2021/07/21 06:47:35;;;;;;;17.03;5.80;;;20.40;99.90;;;;;;5056503;28;20218;-78
2021/07/21 06:50:00;;;;;;;10.47;5.93;;;20.40;99.90;;;;;;5057117;28;20502;-79
2021/07/21 06:52:26;;;;;;;20.00;10.20;;;20.40;99.90;;;;;;5062267;28;20294;-77
2021/07/21 06:54:52;;;;;;;10.93;6.57;;;20.50;99.90;;;;;;5055717;28;20525;-79
2021/07/21 06:57:18;;;;;;;10.33;6.33;;;20.60;99.90;;;;;;5056669;28;20256;-79
2021/07/21 06:59:44;;;;;;;9.87;4.90;;;20.70;99.90;;;;;;5071465;28;20970;-79
2021/07/21 07:02:09;;;;;;;9.20;5.03;;;20.60;99.90;;;;;;5066877;28;20207;-78
2021/07/21 07:04:35;;;;;;;7.37;4.77;;;20.80;99.90;;;;;;5054860;28;20179;-79
2021/07/21 07:07:01;;;;;;;7.33;5.50;;;21.00;99.90;;;;;;5041701;28;20180;-78
2021/07/21 07:09:26;;;;;;;6.87;4.77;;;21.20;99.90;;;;;;5073579;28;20210;-78
2021/07/21 07:11:52;;;;;;;6.60;4.83;;;21.20;99.90;;;;;;5074803;28;20176;-79
2021/07/21 07:14:19;;;;;;;11.57;5.80;;;21.40;99.90;;;;;;5075782;28;20639;-78
2021/07/21 07:16:45;;;;;;;8.00;4.93;;;21.00;99.90;;;;;;5056631;28;20913;-78
2021/07/21 07:19:10;;;;;;;6.53;4.23;;;20.80;99.90;;;;;;5073561;28;20451;-78
2021/07/21 07:21:37;;;;;;;7.50;4.93;;;20.70;99.90;;;;;;5073477;28;20421;-79
2021/07/21 07:24:03;;;;;;;8.37;4.47;;;20.60;99.90;;;;;;5075683;28;20199;-79
2021/07/21 07:26:29;;;;;;;8.17;4.80;;;20.80;99.90;;;;;;5076150;28;20408;-78
2021/07/21 07:28:56;;;;;;;8.30;5.13;;;21.20;99.90;;;;;;5060321;28;20445;-79
2021/07/21 07:31:22;;;;;;;7.50;5.30;;;21.40;99.90;;;;;;5077633;28;20172;-78
2021/07/21 07:33:49;;;;;;;7.17;4.10;;;21.60;99.90;;;;;;5078086;28;20445;-79
2021/07/21 07:36:15;;;;;;;12.50;5.57;;;21.90;99.90;;;;;;5078408;28;20426;-79
2021/07/21 07:38:41;;;;;;;5.20;4.00;;;22.10;99.90;;;;;;5059575;28;20544;-78
2021/07/21 07:41:07;;;;;;;6.30;4.60;;;22.10;99.90;;;;;;5068622;28;20403;-78
2021/07/21 07:43:36;;;;;;;7.23;4.60;;;22.30;99.90;;;;;;5067713;28;20206;-78
2021/07/21 07:46:03;;;;;;;9.97;6.47;;;22.40;99.90;;;;;;5024782;28;20177;-78
2021/07/21 07:48:28;;;;;;;9.90;4.47;;;22.70;99.90;;;;;;5058158;28;20470;-79
2021/07/21 07:50:54;;;;;;;6.47;4.27;;;23.00;99.90;;;;;;5078269;28;20430;-79
2021/07/21 07:53:19;;;;;;;5.10;3.97;;;22.60;99.90;;;;;;5078773;28;20550;-80
2021/07/21 07:55:45;;;;;;;8.80;4.13;;;22.60;99.90;;;;;;5079016;28;20666;-79
2021/07/21 07:58:11;;;;;;;8.73;5.17;;;22.30;99.90;;;;;;5060707;28;20233;-79
2021/07/21 08:00:37;;;;;;;6.87;3.80;;;22.10;99.90;;;;;;5078409;28;20172;-78
2021/07/21 08:03:03;;;;;;;10.30;4.27;;;22.10;99.90;;;;;;5078158;28;20434;-79
2021/07/21 08:05:28;;;;;;;5.87;4.13;;;22.10;99.90;;;;;;5078806;28;20176;-79
2021/07/21 08:07:54;;;;;;;6.33;3.27;;;22.20;99.90;;;;;;5078340;28;20959;-79
2021/07/21 08:10:19;;;;;;;10.67;4.30;;;22.30;99.90;;;;;;5078077;28;20662;-79
2021/07/21 08:12:46;;;;;;;7.47;5.00;;;22.50;99.90;;;;;;5077679;28;20195;-79
2021/07/21 08:15:13;;;;;;;9.70;4.60;;;22.60;99.90;;;;;;5077881;28;20175;-79
2021/07/21 08:17:40;;;;;;;8.80;4.83;;;22.60;99.90;;;;;;5061663;28;20452;-80
2021/07/21 08:20:07;;;;;;;7.93;4.77;;;22.60;99.90;;;;;;5060070;28;20497;-79
2021/07/21 08:22:40;;;;;;;5.00;3.57;;;22.60;99.90;;;;;;5078228;28;20466;-78
2021/07/21 08:25:09;;;;;;;4.50;3.90;;;22.50;99.90;;;;;;5058744;28;20441;-78
2021/07/21 08:27:35;;;;;;;10.00;5.00;;;22.60;99.90;;;;;;5050236;28;20810;-78
2021/07/21 08:30:01;;;;;;;6.73;4.50;;;22.60;99.90;;;;;;5070979;28;20464;-79
2021/07/21 08:32:27;;;;;;;9.00;4.90;;;22.70;99.90;;;;;;5075337;28;20472;-77
2021/07/21 08:34:53;;;;;;;6.23;4.37;;;22.70;99.90;;;;;;5075606;28;20422;-78
2021/07/21 08:37:18;;;;;;;5.87;4.30;;;22.70;99.90;;;;;;5071779;28;20226;-77
2021/07/21 08:39:44;;;;;;;10.13;5.03;;;22.70;99.90;;;;;;5070241;28;20188;-78
2021/07/21 08:42:11;;;;;;;4.50;3.53;;;22.50;99.90;;;;;;5077985;28;20199;-79
2021/07/21 08:44:37;;;;;;;7.73;4.30;;;22.40;99.90;;;;;;5079162;28;20176;-78
2021/07/21 08:47:06;;;;;;;7.10;4.37;;;22.10;99.90;;;;;;5076009;28;20434;-77
2021/07/21 08:49:31;;;;;;;6.60;4.57;;;22.30;99.90;;;;;;5078021;28;20464;-79
2021/07/21 08:51:59;;;;;;;8.20;4.77;;;22.20;99.90;;;;;;5057095;28;20816;-78
2021/07/21 08:54:26;;;;;;;5.80;4.07;;;22.30;99.90;;;;;;5076545;28;20182;-78
2021/07/21 08:56:54;;;;;;;8.37;4.23;;;22.20;99.90;;;;;;5075426;28;20425;-77
2021/07/21 08:59:20;;;;;;;6.47;4.00;;;22.20;99.90;;;;;;5057816;28;20421;-78
2021/07/21 09:01:46;;;;;;;5.60;4.20;;;22.30;99.90;;;;;;5057089;28;20422;-78
2021/07/21 09:04:12;;;;;;;6.60;4.40;;;22.30;99.90;;;;;;5077337;28;20555;-77
2021/07/21 09:06:39;;;;;;;7.10;4.23;;;22.20;99.90;;;;;;5078011;28;20176;-78
2021/07/21 09:09:04;;;;;;;5.90;4.07;;;22.20;99.90;;;;;;5075996;28;20214;-78
2021/07/21 09:11:31;;;;;;;10.03;4.70;;;22.10;99.90;;;;;;5074478;28;20497;-77
2021/07/21 09:13:57;;;;;;;4.27;3.53;;;22.20;99.90;;;;;;5057502;28;20195;-78
2021/07/21 09:16:22;;;;;;;6.23;3.80;;;22.00;99.90;;;;;;5056967;28;20816;-77
2021/07/21 09:18:53;;;;;;;9.13;4.67;;;22.10;99.90;;;;;;5074605;28;20229;-78
2021/07/21 09:21:21;;;;;;;8.13;4.00;;;22.00;99.90;;;;;;5075373;28;20742;-78
2021/07/21 09:23:55;;;;;;;6.13;4.40;;;22.00;99.90;;;;;;5057957;28;20427;-78
2021/07/21 09:26:24;;;;;;;8.13;3.50;;;22.10;99.90;;;;;;5057743;28;20426;-78
2021/07/21 09:28:51;;;;;;;7.40;4.30;;;22.00;99.90;;;;;;5074474;28;20849;-78
2021/07/21 09:31:39;;;;;;;7.60;4.60;;;22.00;99.90;;;;;;5074791;28;20794;-79
2021/07/21 09:34:23;;;;;;;8.37;5.70;;;22.10;99.90;;;;;;5074974;28;20406;-78
2021/07/21 09:36:58;;;;;;;6.67;4.17;;;22.20;99.90;;;;;;5074619;28;20436;-76
2021/07/21 09:39:34;;;;;;;5.50;3.93;;;22.30;99.90;;;;;;5075150;28;20417;-77
2021/07/21 09:41:59;;;;;;;10.30;4.00;;;22.40;99.90;;;;;;5056618;28;20506;-78
2021/07/21 09:44:33;;;;;;;9.03;4.63;;;22.40;99.90;;;;;;5075837;28;20513;-79
2021/07/21 09:47:15;;;;;;;10.10;4.37;;;22.50;99.90;;;;;;5076274;28;20187;-78
2021/07/21 09:49:43;;;;;;;6.27;3.87;;;22.60;99.90;;;;;;5074860;28;20809;-78
2021/07/21 09:52:16;;;;;;;6.43;4.60;;;22.60;99.90;;;;;;5074298;28;20441;-78
2021/07/21 09:54:41;;;;;;;7.60;3.93;;;22.70;99.90;;;;;;5074100;28;20430;-78
2021/07/21 09:57:13;;;;;;;5.40;3.83;;;22.50;99.90;;;;;;5075081;28;20410;-78
2021/07/21 09:59:39;;;;;;;6.53;3.47;;;22.40;99.90;;;;;;5074093;28;20187;-78
2021/07/21 10:02:15;;;;;;;3.60;2.93;;;22.40;99.90;;;;;;5074206;28;20833;-79
2021/07/21 10:04:44;;;;;;;4.40;2.97;;;22.30;99.90;;;;;;5075207;28;20163;-78
2021/07/21 10:09:43;;;;;;;4.20;2.70;;;22.60;99.90;;;;;;5057370;28;20551;-78
2021/07/21 10:12:16;;;;;;;11.60;3.23;;;22.70;99.90;;;;;;5073883;28;20503;-79
2021/07/21 10:14:59;;;;;;;5.13;2.80;;;22.80;99.90;;;;;;5073880;28;20406;-79
2021/07/21 10:17:25;;;;;;;3.00;2.20;;;22.80;99.90;;;;;;5074727;28;20512;-77
2021/07/21 10:19:52;;;;;;;3.93;2.83;;;22.70;99.90;;;;;;5074942;28;20418;-77
2021/07/21 10:22:18;;;;;;;5.00;3.07;;;22.50;99.90;;;;;;5074311;28;20802;-77
2021/07/21 10:24:44;;;;;;;4.80;3.00;;;22.60;99.90;;;;;;5073369;28;20414;-79
2021/07/21 10:27:10;;;;;;;5.33;3.23;;;22.90;99.90;;;;;;5071576;28;20419;-79
2021/07/21 10:29:36;;;;;;;3.60;2.60;;;22.90;99.90;;;;;;5064958;28;20450;-78
2021/07/21 10:32:02;;;;;;;5.07;2.60;;;23.00;99.90;;;;;;5074317;28;20445;-77
2021/07/21 10:34:28;;;;;;;7.23;3.17;;;23.00;99.90;;;;;;5074769;28;20427;-78
2021/07/21 10:36:54;;;;;;;17.93;2.67;;;23.10;99.90;;;;;;5073899;28;20411;-78
2021/07/21 10:39:39;;;;;;;2.70;1.93;;;23.00;99.90;;;;;;5074179;28;20188;-78
2021/07/21 10:42:10;;;;;;;4.27;2.33;;;23.20;99.90;;;;;;5071219;28;20446;-78
2021/07/21 10:44:36;;;;;;;13.27;6.67;;;23.30;99.90;;;;;;5075125;28;20797;-79
2021/07/21 10:47:20;;;;;;;2.90;2.13;;;23.20;99.90;;;;;;5074166;28;20449;-78
2021/07/21 10:49:53;;;;;;;4.93;2.70;;;23.20;99.90;;;;;;5073619;28;20560;-78
2021/07/21 11:00:46;;;;;;;6.30;2.67;;;22.60;99.90;;;;;;5054233;28;20454;-78
2021/07/21 11:03:22;;;;;;;5.93;2.53;;;22.90;99.90;;;;;;5053446;28;20801;-78
2021/07/21 11:06:03;;;;;;;4.53;3.03;;;22.90;99.90;;;;;;5053229;28;20469;-78
2021/07/21 11:08:29;;;;;;;3.50;2.33;;;23.00;99.90;;;;;;5052932;28;20825;-78
2021/07/21 11:11:11;;;;;;;7.57;2.60;;;23.10;99.90;;;;;;5035832;28;20418;-78
2021/07/21 11:13:39;;;;;;;3.60;2.50;;;23.20;99.90;;;;;;5053964;28;20464;-78
2021/07/21 11:16:06;;;;;;;6.23;2.90;;;23.40;99.90;;;;;;5054746;28;20422;-79
2021/07/21 11:18:34;;;;;;;3.87;2.23;;;23.70;99.90;;;;;;5018938;28;20442;-79
2021/07/21 11:21:10;;;;;;;4.77;2.70;;;23.60;99.90;;;;;;5053973;28;20422;-78
2021/07/21 11:23:51;;;;;;;4.13;2.03;;;23.00;99.90;;;;;;5073237;28;20824;-77
2021/07/21 11:26:32;;;;;;;4.37;2.27;;;23.20;99.90;;;;;;5071719;28;20431;-78
2021/07/21 11:29:17;;;;;;;4.23;2.53;;;23.10;99.90;;;;;;5054172;28;20454;-78
2021/07/21 11:31:49;;;;;;;4.30;2.83;;;23.10;99.90;;;;;;5054614;28;20442;-78
2021/07/21 11:34:26;;;;;;;5.83;3.70;;;23.00;99.90;;;;;;5067724;28;20439;-78
2021/07/21 11:36:59;;;;;;;3.80;2.60;;;23.30;99.90;;;;;;5035300;28;20407;-78
2021/07/21 11:39:47;;;;;;;4.67;3.07;;;23.30;99.90;;;;;;5070757;28;20444;-79
2021/07/21 11:42:30;;;;;;;4.07;2.17;;;23.30;99.90;;;;;;5073874;28;20422;-79
2021/07/21 11:45:02;;;;;;;3.57;2.07;;;23.20;99.90;;;;;;5074680;28;20437;-78
2021/07/21 11:47:28;;;;;;;3.03;2.07;;;22.90;99.90;;;;;;5071745;28;20474;-78
2021/07/21 11:49:54;;;;;;;5.90;2.77;;;22.90;99.90;;;;;;5070228;28;20995;-78
2021/07/21 11:52:24;;;;;;;3.50;2.03;;;22.90;99.90;;;;;;5070719;28;20443;-78
2021/07/21 11:54:51;;;;;;;3.70;2.53;;;22.90;99.90;;;;;;5071114;28;20194;-78
2021/07/21 11:57:17;;;;;;;2.67;2.37;;;22.70;99.90;;;;;;5053781;28;20921;-78
2021/07/21 11:59:44;;;;;;;3.30;2.23;;;22.50;99.90;;;;;;5054096;28;20940;-78
2021/07/21 12:02:14;;;;;;;4.17;2.47;;;22.50;99.90;;;;;;5072116;28;20450;-77
2021/07/21 12:04:51;;;;;;;4.43;2.60;;;22.30;99.90;;;;;;5072060;28;20406;-78
2021/07/21 12:07:18;;;;;;;5.77;2.50;;;22.40;99.90;;;;;;5072572;28;20425;-79
2021/07/21 12:09:45;;;;;;;2.60;1.97;;;22.40;99.90;;;;;;5054028;28;20520;-78
2021/07/21 12:12:14;;;;;;;3.50;2.37;;;22.20;99.90;;;;;;5074233;28;20430;-78
2021/07/21 12:14:41;;;;;;;4.53;3.13;;;22.30;99.90;;;;;;5076634;28;20399;-79
2021/07/21 12:17:14;;;;;;;7.87;3.50;;;22.30;99.90;;;;;;5079092;28;20432;-79
2021/07/21 12:19:42;;;;;;;3.77;2.50;;;22.40;99.90;;;;;;5064251;28;20940;-79
2021/07/21 12:22:15;;;;;;;3.00;2.23;;;22.50;99.90;;;;;;5062371;28;20430;-79
2021/07/21 12:24:48;;;;;;;2.70;2.27;;;22.50;99.90;;;;;;5064762;28;20418;-79
2021/07/21 12:27:19;;;;;;;7.20;3.03;;;22.40;99.90;;;;;;5079996;28;20504;-79
2021/07/21 12:29:45;;;;;;;3.60;2.87;;;22.40;99.90;;;;;;5078991;28;20461;-79
2021/07/21 12:32:14;;;;;;;3.37;2.80;;;22.50;99.90;;;;;;5079660;28;20505;-80
2021/07/21 12:34:45;;;;;;;3.73;2.57;;;22.50;99.90;;;;;;5079868;28;20191;-80
2021/07/21 12:37:22;;;;;;;4.43;2.90;;;22.50;99.90;;;;;;5078225;28;20403;-78
2021/07/21 12:39:49;;;;;;;4.23;2.23;;;22.40;99.90;;;;;;5078344;28;20413;-79
2021/07/21 12:42:16;;;;;;;4.23;2.80;;;22.40;99.90;;;;;;5060055;28;20455;-79
2021/07/21 12:45:06;;;;;;;3.20;2.27;;;22.40;99.90;;;;;;5078508;28;20821;-79
2021/07/21 12:47:37;;;;;;;4.00;2.60;;;22.50;99.90;;;;;;5077668;28;20445;-78
2021/07/21 12:50:38;;;;;;;7.13;2.50;;;22.30;99.90;;;;;;5077513;28;20515;-78
2021/07/21 12:53:20;;;;;;;9.93;2.70;;;22.30;99.90;;;;;;5057619;28;20433;-79
2021/07/21 12:55:48;;;;;;;3.67;2.33;;;22.40;99.90;;;;;;5061131;28;20483;-78
2021/07/21 12:58:18;;;;;;;3.27;2.60;;;22.40;99.90;;;;;;5077820;28;20417;-79
2021/07/21 13:00:48;;;;;;;2.50;2.00;;;22.30;99.90;;;;;;5077815;28;20414;-79
2021/07/21 13:03:15;;;;;;;3.63;2.83;;;22.50;99.90;;;;;;5046662;28;20441;-79
2021/07/21 13:05:46;;;;;;;3.53;3.23;;;22.60;99.90;;;;;;5076752;28;20418;-79
2021/07/21 13:08:26;;;;;;;3.17;2.30;;;22.40;99.90;;;;;;5075935;28;20398;-80
2021/07/21 13:11:03;;;;;;;4.13;2.80;;;22.50;99.90;;;;;;5080009;28;20421;-78